Terminal Aerodrome Forecast
Issued by NWS Cleveland, OH

Home | Current Version | Previous Version | Text Only | Print | Product List | Glossary Off
Versions: 1 2 3 4 5 6 7 8 9 10 11 12 13 14

000
FTUS41 KCLE 172338
TAFCAK
TAF
KCAK 172338Z 1800/1824 VRB03KT P6SM SCT070
     FM180800 00000KT 4SM BR SKC
      TEMPO 1810/1813 2SM BR SCT015
     FM181300 16004KT P6SM SCT020 BKN150
     FM181700 VRB04KT P6SM BKN045=

USA.gov is the U.S. government's official web portal to all federal, state and local government web resources and services.